Time;durP1;ratioP1;P1;durP2;ratioP2;P2;SDS_P1;SDS_P2;PMS_P1;PMS_P2;Temp;Humidity;BMP_temperature;BMP_pressure;BME280_temperature;BME280_humidity;BME280_pressure;Samples;Min_cycle;Max_cycle;Signal;HPM_P1;HPM_P2
2022/07/31 00:01:23;;;;;;;1.80;1.10;;;22.60;89.70;;;;;;5054259;28;20037;-89
2022/07/31 00:03:48;;;;;;;1.23;0.90;;;22.50;90.00;;;;;;5051528;28;20514;-90
2022/07/31 00:06:16;;;;;;;1.63;0.93;;;22.50;90.00;;;;;;5051446;28;20533;-91
2022/07/31 00:08:42;;;;;;;1.00;0.63;;;22.50;90.10;;;;;;5051525;28;20075;-90
2022/07/31 00:11:10;;;;;;;2.67;1.30;;;22.50;90.10;;;;;;5051143;28;20033;-90
2022/07/31 00:13:36;;;;;;;1.10;0.80;;;22.50;90.20;;;;;;5051098;28;20039;-92
2022/07/31 00:16:02;;;;;;;1.73;0.70;;;22.50;90.10;;;;;;5051032;28;20484;-90
2022/07/31 00:18:27;;;;;;;1.70;1.00;;;22.50;90.10;;;;;;5051084;28;20090;-90
2022/07/31 00:20:53;;;;;;;2.42;0.90;;;22.50;90.10;;;;;;5051120;28;20128;-90
2022/07/31 00:23:19;;;;;;;1.98;0.90;;;22.50;90.20;;;;;;5051520;28;20048;-90
2022/07/31 00:25:44;;;;;;;1.90;0.90;;;22.50;90.20;;;;;;5051401;28;20501;-90
2022/07/31 00:28:10;;;;;;;1.38;0.75;;;22.50;90.30;;;;;;5051304;28;20092;-90
2022/07/31 00:30:35;;;;;;;1.13;0.82;;;22.40;90.30;;;;;;5050681;28;20061;-90
2022/07/31 00:33:01;;;;;;;1.63;0.85;;;22.40;90.30;;;;;;5050881;28;20026;-91
2022/07/31 00:35:27;;;;;;;2.85;1.10;;;22.50;90.40;;;;;;5050747;28;20045;-90
2022/07/31 00:37:52;;;;;;;0.98;0.80;;;22.40;90.40;;;;;;5050858;28;20060;-90
2022/07/31 00:40:18;;;;;;;1.70;1.05;;;22.40;90.50;;;;;;5050883;28;20080;-90
2022/07/31 00:42:44;;;;;;;1.58;0.95;;;22.40;90.50;;;;;;5050843;28;20045;-90
2022/07/31 00:45:09;;;;;;;2.42;1.10;;;22.40;90.60;;;;;;5050458;28;20487;-90
2022/07/31 00:47:35;;;;;;;2.42;1.05;;;22.40;90.60;;;;;;5049995;28;20098;-90
2022/07/31 00:50:01;;;;;;;2.00;1.17;;;22.30;90.70;;;;;;5043698;28;20029;-90
2022/07/31 00:52:27;;;;;;;2.25;1.20;;;22.20;90.80;;;;;;5046579;28;20040;-90
2022/07/31 00:54:52;;;;;;;1.73;1.00;;;22.20;90.90;;;;;;5044806;28;20041;-88
2022/07/31 00:57:18;;;;;;;1.85;1.10;;;22.10;91.00;;;;;;5048550;28;20037;-90
2022/07/31 00:59:44;;;;;;;1.65;0.90;;;22.20;91.00;;;;;;5033402;28;20030;-90
2022/07/31 01:02:10;;;;;;;2.45;1.02;;;22.10;91.00;;;;;;5049302;28;20037;-90
2022/07/31 01:04:36;;;;;;;1.63;1.13;;;22.00;91.10;;;;;;5050226;28;20113;-89
2022/07/31 01:07:02;;;;;;;1.98;0.80;;;21.90;91.20;;;;;;5036532;28;20057;-91
2022/07/31 01:09:28;;;;;;;1.67;1.00;;;21.80;91.30;;;;;;5034484;28;20042;-90
2022/07/31 01:12:09;;;;;;;1.67;1.00;;;21.90;91.40;;;;;;5049769;28;20053;-89
2022/07/31 01:14:42;;;;;;;1.92;1.17;;;21.80;91.40;;;;;;5049595;28;20073;-90
2022/07/31 01:17:09;;;;;;;3.38;1.40;;;21.80;91.40;;;;;;5049647;28;20037;-90
2022/07/31 01:19:44;;;;;;;1.83;1.25;;;21.70;91.60;;;;;;5050273;28;20064;-90
2022/07/31 01:22:25;;;;;;;1.92;1.20;;;21.70;91.70;;;;;;5034691;28;20033;-90
2022/07/31 01:25:16;;;;;;;1.92;1.13;;;21.60;91.80;;;;;;5050473;28;20132;-89
2022/07/31 01:28:00;;;;;;;4.00;1.35;;;21.60;91.80;;;;;;5050094;28;20044;-90
2022/07/31 01:30:34;;;;;;;2.33;1.10;;;21.70;91.90;;;;;;5049638;28;20048;-91
2022/07/31 01:33:13;;;;;;;2.67;1.00;;;21.60;91.90;;;;;;5033921;28;20394;-90
2022/07/31 01:35:50;;;;;;;1.83;1.00;;;21.60;92.00;;;;;;5049339;28;20053;-90
2022/07/31 01:38:25;;;;;;;1.95;1.02;;;21.60;92.00;;;;;;5034293;28;20030;-91
2022/07/31 01:40:58;;;;;;;2.28;1.10;;;21.60;92.00;;;;;;5049494;28;20038;-90
2022/07/31 01:43:30;;;;;;;1.48;1.02;;;21.60;92.20;;;;;;5049280;28;20025;-90
2022/07/31 01:45:59;;;;;;;1.40;0.90;;;21.50;92.20;;;;;;5049281;28;20032;-90
2022/07/31 01:48:26;;;;;;;3.70;1.40;;;21.60;92.30;;;;;;5049126;28;20116;-90
2022/07/31 01:50:54;;;;;;;3.03;1.17;;;21.50;92.70;;;;;;5033849;28;20053;-90
2022/07/31 01:53:22;;;;;;;2.92;1.70;;;21.40;92.60;;;;;;5033912;28;20033;-89
2022/07/31 01:55:50;;;;;;;1.73;1.00;;;21.40;92.60;;;;;;5048483;28;20109;-90
2022/07/31 01:58:19;;;;;;;1.65;1.20;;;21.50;92.60;;;;;;5049195;28;20079;-90
2022/07/31 02:00:47;;;;;;;2.53;1.23;;;21.50;92.60;;;;;;5049292;28;20030;-90
2022/07/31 02:03:14;;;;;;;2.80;1.58;;;21.50;92.70;;;;;;5049083;28;20053;-90
2022/07/31 02:05:41;;;;;;;1.75;1.42;;;21.30;92.90;;;;;;5049694;28;20132;-91
2022/07/31 02:08:08;;;;;;;3.20;1.40;;;21.30;93.20;;;;;;5049889;28;20022;-91
2022/07/31 02:10:36;;;;;;;2.33;1.30;;;21.10;93.40;;;;;;5049690;28;20026;-91
2022/07/31 02:13:02;;;;;;;2.30;1.50;;;21.10;93.50;;;;;;5051593;28;20124;-91
2022/07/31 02:15:29;;;;;;;1.95;1.30;;;21.00;93.70;;;;;;5053903;28;20049;-90
2022/07/31 02:17:56;;;;;;;3.33;1.40;;;21.00;93.70;;;;;;5054885;28;20030;-90
2022/07/31 02:20:23;;;;;;;2.47;1.40;;;20.90;93.70;;;;;;5054029;28;20029;-92
2022/07/31 02:22:49;;;;;;;3.55;1.90;;;21.00;94.00;;;;;;5053969;28;20037;-89
2022/07/31 02:25:15;;;;;;;3.08;1.55;;;20.90;94.10;;;;;;5038170;28;20041;-89
2022/07/31 02:27:42;;;;;;;2.92;1.60;;;20.90;94.10;;;;;;5053984;28;20071;-90
2022/07/31 02:30:09;;;;;;;2.50;1.50;;;20.90;94.30;;;;;;5054876;28;20045;-90
2022/07/31 02:32:35;;;;;;;2.58;1.50;;;20.90;94.60;;;;;;5053339;28;20184;-90
2022/07/31 02:35:02;;;;;;;2.15;1.30;;;20.80;94.70;;;;;;5037960;28;20543;-90
2022/07/31 02:37:30;;;;;;;1.90;1.25;;;20.80;94.80;;;;;;5053910;28;20150;-90
2022/07/31 02:39:56;;;;;;;2.67;1.38;;;20.90;94.70;;;;;;5038794;28;20040;-90
2022/07/31 02:42:22;;;;;;;2.78;1.50;;;21.00;94.50;;;;;;5054225;28;20035;-91
2022/07/31 02:44:49;;;;;;;4.63;1.60;;;21.00;94.50;;;;;;5053165;28;20041;-90
2022/07/31 02:47:16;;;;;;;5.00;1.73;;;21.10;94.60;;;;;;5036835;28;20041;-89
2022/07/31 02:49:44;;;;;;;2.97;1.40;;;21.10;94.50;;;;;;5052767;28;20048;-89
2022/07/31 02:52:11;;;;;;;2.38;1.50;;;21.10;94.50;;;;;;5037100;28;20048;-90
2022/07/31 02:54:39;;;;;;;1.73;1.35;;;21.10;94.70;;;;;;5052647;28;20049;-90
2022/07/31 02:57:05;;;;;;;2.03;1.50;;;21.10;94.80;;;;;;5052574;28;20057;-90
2022/07/31 02:59:38;;;;;;;2.30;1.48;;;21.00;94.90;;;;;;5051634;28;20037;-91
2022/07/31 03:02:05;;;;;;;2.17;1.30;;;21.00;95.00;;;;;;5052837;28;20036;-90
2022/07/31 03:04:31;;;;;;;2.25;1.38;;;21.00;94.80;;;;;;5052629;28;20045;-90
2022/07/31 03:06:57;;;;;;;2.53;1.30;;;21.10;94.90;;;;;;5052772;28;20030;-90
2022/07/31 03:09:23;;;;;;;2.00;1.30;;;21.00;94.80;;;;;;5053045;28;20430;-90
2022/07/31 03:11:49;;;;;;;2.30;1.35;;;21.10;94.80;;;;;;5052742;28;20113;-91
2022/07/31 03:14:17;;;;;;;2.63;1.23;;;21.00;94.80;;;;;;5052465;28;20052;-89
2022/07/31 03:16:45;;;;;;;2.75;1.35;;;21.10;94.80;;;;;;5052375;28;20060;-90
2022/07/31 03:19:12;;;;;;;2.65;1.23;;;21.10;94.70;;;;;;5037096;28;20248;-91
2022/07/31 03:21:38;;;;;;;2.53;1.30;;;21.10;94.70;;;;;;5052308;28;20037;-89
2022/07/31 03:24:05;;;;;;;2.60;1.42;;;21.20;94.70;;;;;;5051645;28;20095;-90
2022/07/31 03:26:31;;;;;;;2.72;1.27;;;21.20;94.70;;;;;;5051866;28;20045;-90
2022/07/31 03:28:59;;;;;;;1.70;1.17;;;21.10;94.70;;;;;;5037484;28;20029;-89
2022/07/31 03:31:25;;;;;;;2.13;1.20;;;21.10;94.70;;;;;;5036549;28;20049;-89
2022/07/31 03:33:50;;;;;;;1.92;1.35;;;21.00;94.80;;;;;;5052104;28;20060;-89
2022/07/31 03:36:16;;;;;;;3.28;1.55;;;21.00;94.90;;;;;;5052133;28;20025;-89
2022/07/31 03:38:42;;;;;;;2.40;1.27;;;21.00;94.90;;;;;;5052529;28;20049;-91
2022/07/31 03:41:08;;;;;;;2.40;1.20;;;21.00;95.00;;;;;;5053186;28;20479;-90
2022/07/31 03:43:35;;;;;;;2.03;1.30;;;21.00;95.00;;;;;;5036875;28;20040;-92
2022/07/31 03:46:01;;;;;;;2.83;1.45;;;21.00;95.00;;;;;;5052345;28;20120;-90
2022/07/31 03:48:28;;;;;;;2.80;1.58;;;20.90;95.00;;;;;;5052075;28;20079;-90
2022/07/31 03:50:54;;;;;;;2.33;1.30;;;20.90;95.20;;;;;;5052137;28;20032;-91
2022/07/31 03:53:21;;;;;;;3.30;2.00;;;20.90;95.10;;;;;;5052141;28;20026;-90
2022/07/31 03:55:47;;;;;;;2.75;2.08;;;20.90;95.20;;;;;;5052397;28;20073;-90
2022/07/31 03:58:14;;;;;;;3.47;2.00;;;20.70;95.30;;;;;;5052508;28;20025;-91
2022/07/31 04:00:40;;;;;;;3.40;2.13;;;20.60;95.50;;;;;;5052623;28;20039;-90
2022/07/31 04:03:11;;;;;;;3.50;1.77;;;20.50;95.70;;;;;;5036354;28;20496;-90
2022/07/31 04:05:38;;;;;;;3.33;1.75;;;20.60;95.70;;;;;;5036476;28;20443;-89
2022/07/31 04:08:04;;;;;;;3.22;1.80;;;20.60;95.70;;;;;;5052302;28;20058;-89
2022/07/31 04:10:30;;;;;;;3.97;2.15;;;20.60;95.60;;;;;;5038507;28;20037;-90
2022/07/31 04:12:56;;;;;;;3.25;2.05;;;20.60;95.70;;;;;;5040935;28;20030;-89
2022/07/31 04:15:22;;;;;;;3.67;2.22;;;20.60;95.70;;;;;;5037113;28;20037;-90
2022/07/31 04:17:47;;;;;;;3.90;2.20;;;20.50;95.70;;;;;;5052638;28;20484;-89
2022/07/31 04:20:13;;;;;;;3.75;2.40;;;20.50;95.90;;;;;;5052721;28;20029;-89
2022/07/31 04:22:40;;;;;;;2.95;1.85;;;20.40;96.00;;;;;;5055582;28;20068;-90
2022/07/31 04:25:06;;;;;;;4.13;2.53;;;20.40;96.20;;;;;;5042092;28;20126;-89
2022/07/31 04:27:33;;;;;;;4.80;2.90;;;20.30;96.10;;;;;;5046770;28;20081;-90
2022/07/31 04:29:59;;;;;;;3.67;2.80;;;20.30;96.20;;;;;;5069449;28;20040;-90
2022/07/31 04:32:24;;;;;;;5.13;2.80;;;20.20;96.40;;;;;;5075094;28;20037;-88
2022/07/31 04:34:50;;;;;;;4.63;2.50;;;20.20;96.50;;;;;;5075477;28;20057;-89
2022/07/31 04:37:16;;;;;;;4.07;2.58;;;20.10;96.50;;;;;;5075477;28;20026;-90
2022/07/31 04:39:42;;;;;;;3.78;2.45;;;20.10;96.60;;;;;;5075125;28;20037;-90
2022/07/31 04:42:08;;;;;;;4.28;2.20;;;20.10;96.80;;;;;;5073493;28;20033;-90
2022/07/31 04:44:34;;;;;;;4.53;2.60;;;20.00;96.90;;;;;;5074865;28;20018;-90
2022/07/31 04:47:04;;;;;;;4.40;2.65;;;20.10;97.00;;;;;;5075036;28;20085;-90
2022/07/31 04:49:31;;;;;;;5.03;2.25;;;20.10;97.10;;;;;;5075412;28;20038;-90
2022/07/31 04:51:58;;;;;;;5.50;2.60;;;20.00;97.10;;;;;;5074898;28;20021;-89
2022/07/31 04:54:24;;;;;;;3.33;1.88;;;20.00;97.30;;;;;;5070054;28;20030;-90
2022/07/31 04:56:50;;;;;;;3.50;2.35;;;20.10;97.30;;;;;;5059099;28;20052;-90
2022/07/31 04:59:19;;;;;;;3.40;2.20;;;20.10;97.30;;;;;;5074841;28;20041;-91
2022/07/31 05:01:46;;;;;;;3.47;1.90;;;20.10;97.40;;;;;;5073003;28;20117;-89
2022/07/31 05:04:12;;;;;;;3.15;1.95;;;20.10;97.40;;;;;;5073901;28;20040;-89
2022/07/31 05:06:40;;;;;;;2.63;1.80;;;20.20;97.50;;;;;;5058275;28;20022;-90
2022/07/31 05:09:08;;;;;;;2.30;1.38;;;20.30;97.50;;;;;;5073937;28;20018;-89
2022/07/31 05:11:35;;;;;;;2.45;1.67;;;20.30;97.50;;;;;;5074243;28;20037;-89
2022/07/31 05:14:02;;;;;;;2.78;1.90;;;20.40;97.50;;;;;;5065805;28;20040;-91
2022/07/31 05:16:29;;;;;;;4.15;1.63;;;20.40;97.50;;;;;;5073005;28;20022;-90
2022/07/31 05:18:55;;;;;;;3.88;1.92;;;20.50;97.60;;;;;;5074205;28;20045;-88
2022/07/31 05:21:21;;;;;;;3.25;1.88;;;20.60;97.60;;;;;;5072691;28;20083;-88
2022/07/31 05:23:48;;;;;;;3.88;1.90;;;20.60;97.60;;;;;;5073714;28;20034;-90
2022/07/31 05:26:16;;;;;;;3.20;1.80;;;20.60;97.60;;;;;;5072455;28;20024;-90
2022/07/31 05:28:42;;;;;;;3.67;2.30;;;20.70;97.70;;;;;;5057634;28;20021;-90
2022/07/31 05:31:08;;;;;;;3.33;2.10;;;20.70;97.70;;;;;;5073837;28;20078;-89
2022/07/31 05:33:35;;;;;;;3.60;2.53;;;20.80;97.80;;;;;;5070352;28;20042;-90
2022/07/31 05:36:02;;;;;;;4.13;2.40;;;20.80;97.90;;;;;;5071752;28;20033;-89
2022/07/31 05:38:28;;;;;;;4.13;3.08;;;20.80;97.90;;;;;;5072967;28;20056;-90
2022/07/31 05:40:53;;;;;;;5.95;3.65;;;20.80;98.00;;;;;;5069148;28;20045;-91
2022/07/31 05:43:19;;;;;;;4.78;2.83;;;20.80;98.20;;;;;;5067754;28;20024;-90
2022/07/31 05:45:47;;;;;;;4.15;2.60;;;20.70;98.30;;;;;;5070399;28;20014;-90
2022/07/31 05:48:14;;;;;;;6.32;2.45;;;20.70;98.40;;;;;;5070166;28;20033;-92
2022/07/31 05:50:47;;;;;;;4.60;2.85;;;20.80;98.40;;;;;;5069767;28;20045;-90
2022/07/31 05:53:16;;;;;;;4.45;2.85;;;20.80;98.40;;;;;;5067144;28;20037;-90
2022/07/31 05:55:48;;;;;;;6.10;4.20;;;20.80;98.60;;;;;;5068356;28;20053;-91
2022/07/31 05:58:15;;;;;;;7.07;4.47;;;20.80;98.80;;;;;;5066983;28;20044;-90
2022/07/31 06:00:41;;;;;;;4.40;3.30;;;20.70;98.90;;;;;;5062798;28;20037;-92
2022/07/31 06:03:07;;;;;;;5.35;2.97;;;20.60;99.00;;;;;;5063972;28;20116;-91
2022/07/31 06:05:33;;;;;;;5.53;3.45;;;20.70;99.10;;;;;;5057761;28;20506;-91
2022/07/31 06:07:59;;;;;;;5.40;3.30;;;20.60;99.00;;;;;;5056483;28;20030;-91
2022/07/31 06:10:26;;;;;;;6.88;4.53;;;20.60;99.20;;;;;;5052486;28;20037;-91
2022/07/31 06:12:53;;;;;;;5.25;3.55;;;20.60;99.30;;;;;;5035276;28;20037;-91
2022/07/31 06:15:18;;;;;;;4.25;3.28;;;20.50;99.40;;;;;;5054349;28;20065;-91
2022/07/31 06:17:45;;;;;;;6.53;4.50;;;20.50;99.40;;;;;;5034476;28;20048;-92
2022/07/31 06:20:11;;;;;;;5.40;3.78;;;20.50;99.60;;;;;;5050381;28;20048;-90
2022/07/31 06:22:39;;;;;;;5.53;3.33;;;20.50;99.70;;;;;;5035912;28;20033;-93
2022/07/31 06:25:07;;;;;;;7.30;3.83;;;20.50;99.70;;;;;;5034991;28;20080;-91
2022/07/31 06:27:33;;;;;;;8.10;3.95;;;20.50;99.70;;;;;;5034942;28;20049;-92
2022/07/31 06:29:59;;;;;;;7.75;4.38;;;20.50;99.80;;;;;;5034634;28;20065;-92
2022/07/31 06:32:24;;;;;;;4.90;3.90;;;20.50;99.90;;;;;;5033334;28;20099;-88
2022/07/31 06:34:50;;;;;;;4.05;3.28;;;20.50;99.90;;;;;;5042741;28;20041;-90
2022/07/31 06:37:16;;;;;;;5.40;3.40;;;20.60;99.90;;;;;;5034576;28;20030;-91
2022/07/31 06:39:41;;;;;;;5.50;3.65;;;20.60;99.90;;;;;;5036468;28;20072;-90
2022/07/31 06:42:07;;;;;;;6.70;3.90;;;20.60;99.90;;;;;;5034724;28;20033;-91
2022/07/31 06:44:33;;;;;;;6.22;4.00;;;20.60;99.90;;;;;;5033605;28;20026;-91
2022/07/31 06:46:59;;;;;;;5.88;3.58;;;20.60;99.90;;;;;;5033940;28;20064;-91
2022/07/31 06:49:25;;;;;;;4.70;3.85;;;20.70;99.90;;;;;;5033681;28;20042;-91
2022/07/31 06:51:51;;;;;;;6.05;3.95;;;20.70;99.90;;;;;;5035072;28;20564;-92
2022/07/31 06:54:18;;;;;;;5.18;3.80;;;20.70;99.90;;;;;;5033854;28;20040;-91
2022/07/31 06:56:43;;;;;;;5.22;3.95;;;20.80;99.90;;;;;;5033669;28;20105;-92
2022/07/31 06:59:09;;;;;;;5.68;4.18;;;20.70;99.90;;;;;;5034682;28;20046;-91
2022/07/31 07:01:35;;;;;;;4.85;4.10;;;20.70;99.90;;;;;;5037031;28;20041;-92
2022/07/31 07:04:01;;;;;;;5.85;3.60;;;20.70;99.90;;;;;;5037330;28;20368;-90
2022/07/31 07:06:27;;;;;;;6.13;4.50;;;20.70;99.90;;;;;;5037339;28;20061;-89
2022/07/31 07:08:53;;;;;;;6.50;4.30;;;20.70;99.90;;;;;;5051906;28;20033;-90
2022/07/31 07:11:19;;;;;;;5.35;3.90;;;20.70;99.90;;;;;;5051769;28;20064;-89
2022/07/31 07:13:46;;;;;;;8.40;5.93;;;20.80;99.90;;;;;;5042749;28;20065;-90
2022/07/31 07:16:13;;;;;;;6.32;4.80;;;20.80;99.90;;;;;;5045964;28;20045;-91
2022/07/31 07:18:39;;;;;;;4.97;4.13;;;20.80;99.90;;;;;;5026825;28;20045;-91
2022/07/31 07:21:05;;;;;;;5.22;4.00;;;20.80;99.90;;;;;;5025125;28;20041;-93
2022/07/31 07:23:32;;;;;;;6.03;4.45;;;20.80;99.90;;;;;;5038218;28;20030;-91
2022/07/31 07:25:58;;;;;;;6.38;4.30;;;20.80;99.90;;;;;;5021583;28;20033;-93
2022/07/31 07:28:24;;;;;;;5.63;4.30;;;20.80;99.90;;;;;;5055178;28;20483;-94
2022/07/31 07:30:49;;;;;;;6.32;3.75;;;20.80;99.90;;;;;;5054874;28;20083;-94
2022/07/31 07:33:15;;;;;;;6.22;4.32;;;20.80;99.90;;;;;;5049716;28;20100;-92
2022/07/31 07:35:41;;;;;;;6.47;4.97;;;20.80;99.90;;;;;;5035638;28;20122;-88
2022/07/31 07:38:07;;;;;;;6.03;4.30;;;20.80;99.90;;;;;;5052602;28;20033;-89
2022/07/31 07:40:33;;;;;;;4.72;3.67;;;20.90;99.90;;;;;;5053267;28;20038;-88
2022/07/31 07:42:58;;;;;;;5.35;3.80;;;21.00;99.90;;;;;;5035667;28;20041;-89
2022/07/31 07:45:24;;;;;;;6.28;4.18;;;21.10;99.90;;;;;;5035563;28;20038;-86
2022/07/31 07:47:51;;;;;;;6.53;4.07;;;21.10;99.90;;;;;;5036806;28;20456;-90
2022/07/31 07:50:17;;;;;;;7.40;5.05;;;21.10;99.90;;;;;;5035718;28;20702;-87
2022/07/31 07:52:43;;;;;;;7.10;4.95;;;21.00;99.90;;;;;;5050624;28;20626;-87
2022/07/31 07:55:11;;;;;;;7.70;6.55;;;20.80;99.90;;;;;;5033261;28;20124;-90
2022/07/31 07:57:38;;;;;;;7.60;5.75;;;20.70;99.90;;;;;;5033736;28;20030;-88
2022/07/31 08:00:09;;;;;;;5.95;4.40;;;20.70;99.90;;;;;;5050562;28;20041;-91
2022/07/31 08:02:35;;;;;;;6.18;4.57;;;20.70;99.90;;;;;;5034090;28;20049;-86
2022/07/31 08:05:01;;;;;;;6.53;4.72;;;20.70;99.90;;;;;;5034463;28;20037;-88
2022/07/31 08:07:33;;;;;;;6.03;4.78;;;20.70;99.90;;;;;;5034808;28;20060;-88
2022/07/31 08:09:59;;;;;;;5.53;4.25;;;20.80;99.90;;;;;;5035166;28;20099;-87
2022/07/31 08:12:25;;;;;;;5.50;4.30;;;20.80;99.90;;;;;;5034519;28;20438;-89
2022/07/31 08:14:52;;;;;;;7.38;5.75;;;21.00;99.90;;;;;;5034936;28;20069;-87
2022/07/31 08:17:17;;;;;;;11.15;6.43;;;21.10;99.90;;;;;;5035165;28;20022;-88
2022/07/31 08:19:43;;;;;;;6.63;5.00;;;21.00;99.90;;;;;;5035184;28;20506;-87
2022/07/31 08:22:09;;;;;;;8.57;5.13;;;21.10;99.90;;;;;;5035232;28;20029;-87
2022/07/31 08:24:35;;;;;;;6.82;4.72;;;21.10;99.90;;;;;;5034208;28;20038;-89
2022/07/31 08:29:46;;;;;;;6.00;4.38;;;21.30;99.90;;;;;;5034272;28;20049;-86
2022/07/31 08:32:12;;;;;;;7.15;5.07;;;21.30;99.90;;;;;;5034079;28;20047;-87
2022/07/31 08:34:38;;;;;;;5.97;4.13;;;21.40;99.90;;;;;;5033071;28;20033;-87
2022/07/31 08:37:05;;;;;;;7.38;4.43;;;21.50;99.90;;;;;;5032686;28;20029;-87
2022/07/31 08:39:32;;;;;;;6.53;3.60;;;21.60;99.90;;;;;;5035061;28;20029;-88
2022/07/31 08:41:58;;;;;;;7.28;4.35;;;21.80;99.90;;;;;;5051170;28;20029;-88
2022/07/31 08:44:24;;;;;;;5.78;3.88;;;22.10;99.90;;;;;;5018084;28;20124;-88
2022/07/31 08:46:53;;;;;;;6.95;4.45;;;22.20;99.90;;;;;;5034369;28;20544;-89
2022/07/31 08:49:23;;;;;;;5.82;4.20;;;22.30;99.90;;;;;;5033987;28;20025;-88
2022/07/31 08:51:50;;;;;;;7.93;5.45;;;22.60;99.90;;;;;;5035257;28;20029;-88
2022/07/31 08:54:17;;;;;;;6.10;4.25;;;22.70;99.90;;;;;;5034644;28;20506;-88
2022/07/31 08:56:45;;;;;;;6.22;4.68;;;22.90;99.90;;;;;;5033792;28;20113;-89
2022/07/31 08:59:11;;;;;;;6.50;4.32;;;23.10;99.90;;;;;;5034741;28;20041;-89
2022/07/31 09:01:37;;;;;;;7.95;4.85;;;23.30;99.90;;;;;;5050151;28;20084;-88
2022/07/31 09:04:03;;;;;;;6.20;4.30;;;23.40;99.90;;;;;;5034479;28;20048;-89
2022/07/31 09:06:29;;;;;;;5.18;3.63;;;23.40;99.90;;;;;;5033355;28;20067;-89
2022/07/31 09:08:56;;;;;;;6.28;3.97;;;23.50;99.90;;;;;;5017231;28;20606;-89
2022/07/31 09:11:22;;;;;;;6.18;4.20;;;23.60;99.90;;;;;;5033890;28;20042;-87
2022/07/31 09:13:59;;;;;;;5.85;4.53;;;23.60;99.90;;;;;;5033676;28;20097;-89
2022/07/31 09:16:25;;;;;;;5.50;3.35;;;23.50;99.90;;;;;;5034334;28;20042;-84
2022/07/31 09:18:59;;;;;;;5.38;3.63;;;23.40;99.90;;;;;;5036304;28;20041;-89
2022/07/31 09:21:43;;;;;;;5.53;3.88;;;23.40;99.90;;;;;;5038082;28;20026;-91
2022/07/31 09:24:13;;;;;;;5.38;3.67;;;23.40;99.90;;;;;;5054270;28;20120;-92
2022/07/31 09:26:41;;;;;;;5.00;3.28;;;23.30;99.90;;;;;;5044153;28;20038;-88
2022/07/31 09:29:10;;;;;;;5.95;4.18;;;23.30;99.90;;;;;;5023064;28;20057;-89
2022/07/31 09:31:37;;;;;;;4.50;3.35;;;23.40;99.90;;;;;;5033157;28;20064;-88
2022/07/31 09:34:03;;;;;;;5.70;3.47;;;23.40;99.90;;;;;;5032981;28;20499;-88
2022/07/31 09:36:29;;;;;;;5.10;3.35;;;23.40;99.90;;;;;;5033616;28;20037;-91
2022/07/31 09:38:55;;;;;;;6.22;4.28;;;23.30;99.90;;;;;;5033725;28;20025;-89
2022/07/31 09:41:22;;;;;;;5.82;4.03;;;23.10;99.90;;;;;;5034860;28;20046;-90
2022/07/31 09:43:56;;;;;;;6.53;4.35;;;23.00;99.90;;;;;;5034290;28;20029;-88
2022/07/31 09:46:23;;;;;;;7.28;4.10;;;23.00;99.90;;;;;;5035237;28;20060;-89
2022/07/31 09:48:51;;;;;;;6.60;4.45;;;22.90;99.90;;;;;;5033421;28;20037;-88
2022/07/31 09:51:17;;;;;;;5.57;3.80;;;22.70;99.90;;;;;;5035125;28;20041;-90
2022/07/31 09:53:45;;;;;;;5.68;4.57;;;22.40;99.90;;;;;;5035276;28;20385;-89
2022/07/31 09:56:13;;;;;;;6.57;4.60;;;22.10;99.90;;;;;;5035232;28;20395;-90
2022/07/31 09:58:40;;;;;;;6.60;4.68;;;21.90;99.90;;;;;;5033516;28;20053;-87
2022/07/31 10:01:09;;;;;;;5.93;4.65;;;21.70;99.90;;;;;;5034062;28;20061;-89
2022/07/31 10:03:40;;;;;;;6.68;5.00;;;21.60;99.90;;;;;;5049318;28;20449;-91
2022/07/31 10:06:11;;;;;;;7.97;5.10;;;21.70;99.90;;;;;;5049874;28;20037;-88
2022/07/31 10:08:39;;;;;;;6.90;4.47;;;21.60;99.90;;;;;;5033619;28;20121;-88
2022/07/31 10:11:08;;;;;;;7.53;5.28;;;21.40;99.90;;;;;;5033190;28;20033;-89
2022/07/31 10:13:37;;;;;;;7.07;4.97;;;21.30;99.90;;;;;;5033873;28;20056;-87
2022/07/31 10:16:04;;;;;;;6.70;4.75;;;21.20;99.90;;;;;;5035534;28;20038;-88
2022/07/31 10:18:36;;;;;;;6.03;4.75;;;21.10;99.90;;;;;;5038771;28;20040;-88
2022/07/31 10:21:04;;;;;;;7.13;5.43;;;21.00;99.90;;;;;;5055324;28;20030;-89
2022/07/31 10:23:32;;;;;;;6.82;5.75;;;20.90;99.90;;;;;;5033964;28;20087;-88
2022/07/31 10:26:00;;;;;;;7.63;5.82;;;21.00;99.90;;;;;;5036860;28;20049;-90
2022/07/31 10:28:30;;;;;;;7.50;5.65;;;21.00;99.90;;;;;;5034417;28;20033;-91
2022/07/31 10:30:57;;;;;;;7.38;5.82;;;21.10;99.90;;;;;;5034629;28;20033;-90
2022/07/31 10:33:25;;;;;;;7.18;5.90;;;21.10;99.90;;;;;;5034521;28;20033;-88
2022/07/31 10:35:56;;;;;;;8.00;6.15;;;21.20;99.90;;;;;;5036071;28;20139;-91
2022/07/31 10:38:50;;;;;;;7.30;5.85;;;21.30;99.90;;;;;;5037330;28;20046;-89
2022/07/31 10:41:30;;;;;;;7.75;6.22;;;21.50;99.90;;;;;;5041722;28;20463;-90
2022/07/31 10:44:30;;;;;;;7.55;5.93;;;21.60;99.90;;;;;;5028608;28;20046;-93
2022/07/31 10:46:57;;;;;;;8.52;7.35;;;21.70;99.90;;;;;;5031872;28;20044;-89
2022/07/31 10:49:58;;;;;;;8.50;6.72;;;21.80;99.90;;;;;;5012406;28;20112;-85
2022/07/31 10:52:32;;;;;;;9.07;7.68;;;22.50;99.90;;;;;;4932190;29;20055;-86
2022/07/31 10:55:00;;;;;;;8.75;7.25;;;22.90;99.90;;;;;;4984853;28;20141;-85
2022/07/31 10:57:32;;;;;;;8.88;7.15;;;23.00;99.90;;;;;;5012123;28;20025;-84
2022/07/31 11:00:12;;;;;;;9.93;8.57;;;23.00;99.90;;;;;;5028214;28;20110;-87
2022/07/31 11:02:38;;;;;;;8.70;7.65;;;23.00;99.90;;;;;;5031290;28;20064;-86
2022/07/31 11:05:14;;;;;;;8.23;7.40;;;22.90;99.90;;;;;;5032726;28;20041;-89
2022/07/31 11:08:31;;;;;;;9.30;8.00;;;22.90;99.90;;;;;;5044761;28;20081;-89
2022/07/31 11:11:02;;;;;;;10.77;9.68;;;22.80;99.90;;;;;;5063287;28;20060;-92
2022/07/31 11:13:29;;;;;;;9.93;8.90;;;22.60;99.90;;;;;;5054864;28;20347;-87
2022/07/31 11:16:05;;;;;;;8.55;7.65;;;22.50;99.90;;;;;;5035030;28;20132;-89
2022/07/31 11:18:31;;;;;;;9.30;7.45;;;22.30;99.90;;;;;;5050774;28;20478;-89
2022/07/31 11:21:03;;;;;;;8.50;7.65;;;22.10;99.90;;;;;;5057865;28;20052;-91
2022/07/31 11:23:30;;;;;;;9.65;8.65;;;22.20;99.90;;;;;;5049348;28;20521;-91
2022/07/31 11:26:05;;;;;;;8.63;7.82;;;22.50;99.90;;;;;;5034137;28;20034;-92
2022/07/31 11:28:32;;;;;;;11.32;9.10;;;22.80;99.90;;;;;;5046198;28;20493;-88
2022/07/31 11:31:01;;;;;;;9.18;8.27;;;22.90;99.90;;;;;;5030650;28;20045;-87
2022/07/31 11:33:28;;;;;;;10.40;9.40;;;23.00;99.90;;;;;;5024636;28;20033;-86
2022/07/31 11:35:54;;;;;;;9.70;8.70;;;23.10;99.90;;;;;;5046712;28;20088;-89
2022/07/31 11:38:27;;;;;;;11.23;10.13;;;22.90;99.90;;;;;;5046211;28;20721;-87
2022/07/31 11:40:52;;;;;;;10.73;9.57;;;22.60;99.90;;;;;;5042361;28;20045;-87
2022/07/31 11:43:54;;;;;;;9.48;8.57;;;22.60;99.90;;;;;;5041507;28;20049;-91
